sensor_id;sensor_type;location;lat;lon;timestamp;P1;durP1;ratioP1;P2;durP2;ratioP2
32242;SDS011;18731;42.830;24.390;2023-03-19T04:01:16;15.68;;;7.32;;
32242;SDS011;18731;42.830;24.390;2023-03-19T04:03:43;15.45;;;6.82;;
32242;SDS011;18731;42.830;24.390;2023-03-19T04:06:13;14.57;;;6.55;;
32242;SDS011;18731;42.830;24.390;2023-03-19T04:08:41;31.58;;;12.70;;
32242;SDS011;18731;42.830;24.390;2023-03-19T04:11:07;18.98;;;8.27;;
32242;SDS011;18731;42.830;24.390;2023-03-19T04:13:33;24.77;;;8.55;;
32242;SDS011;18731;42.830;24.390;2023-03-19T04:16:02;13.95;;;6.78;;
32242;SDS011;18731;42.830;24.390;2023-03-19T04:18:29;16.25;;;7.00;;
32242;SDS011;18731;42.830;24.390;2023-03-19T04:20:55;16.17;;;7.07;;
32242;SDS011;18731;42.830;24.390;2023-03-19T04:23:22;16.52;;;6.60;;
32242;SDS011;18731;42.830;24.390;2023-03-19T04:25:48;8.43;;;4.57;;
32242;SDS011;18731;42.830;24.390;2023-03-19T04:28:14;11.43;;;4.47;;
32242;SDS011;18731;42.830;24.390;2023-03-19T04:30:40;6.78;;;4.47;;
32242;SDS011;18731;42.830;24.390;2023-03-19T04:33:07;11.48;;;4.20;;
32242;SDS011;18731;42.830;24.390;2023-03-19T04:35:33;8.38;;;4.32;;
32242;SDS011;18731;42.830;24.390;2023-03-19T04:37:59;8.60;;;4.28;;
32242;SDS011;18731;42.830;24.390;2023-03-19T04:40:24;9.55;;;4.50;;
32242;SDS011;18731;42.830;24.390;2023-03-19T04:42:50;9.05;;;4.57;;
32242;SDS011;18731;42.830;24.390;2023-03-19T04:45:15;8.15;;;4.75;;
32242;SDS011;18731;42.830;24.390;2023-03-19T04:47:41;9.32;;;4.20;;
32242;SDS011;18731;42.830;24.390;2023-03-19T04:50:07;8.25;;;4.68;;
32242;SDS011;18731;42.830;24.390;2023-03-19T04:52:34;29.13;;;16.80;;
32242;SDS011;18731;42.830;24.390;2023-03-19T04:55:02;21.70;;;10.65;;
32242;SDS011;18731;42.830;24.390;2023-03-19T04:57:28;12.30;;;6.90;;
32242;SDS011;18731;42.830;24.390;2023-03-19T04:59:54;12.18;;;7.15;;
32242;SDS011;18731;42.830;24.390;2023-03-19T05:02:20;40.08;;;22.38;;
32242;SDS011;18731;42.830;24.390;2023-03-19T05:04:46;72.10;;;33.22;;
32242;SDS011;18731;42.830;24.390;2023-03-19T05:07:12;118.93;;;53.78;;
32242;SDS011;18731;42.830;24.390;2023-03-19T05:09:37;50.83;;;24.65;;
32242;SDS011;18731;42.830;24.390;2023-03-19T05:12:04;51.58;;;24.17;;
32242;SDS011;18731;42.830;24.390;2023-03-19T05:14:30;47.25;;;24.75;;
32242;SDS011;18731;42.830;24.390;2023-03-19T05:16:56;49.70;;;21.23;;
32242;SDS011;18731;42.830;24.390;2023-03-19T05:19:22;55.25;;;27.73;;
32242;SDS011;18731;42.830;24.390;2023-03-19T05:21:49;51.88;;;25.30;;
32242;SDS011;18731;42.830;24.390;2023-03-19T05:24:15;51.10;;;24.88;;
32242;SDS011;18731;42.830;24.390;2023-03-19T05:26:40;40.20;;;19.50;;
32242;SDS011;18731;42.830;24.390;2023-03-19T05:29:06;32.35;;;16.95;;
32242;SDS011;18731;42.830;24.390;2023-03-19T05:31:35;30.35;;;13.27;;
32242;SDS011;18731;42.830;24.390;2023-03-19T05:34:02;34.03;;;16.85;;
32242;SDS011;18731;42.830;24.390;2023-03-19T05:36:28;40.58;;;18.55;;
32242;SDS011;18731;42.830;24.390;2023-03-19T05:38:54;39.67;;;19.80;;
32242;SDS011;18731;42.830;24.390;2023-03-19T05:41:20;52.33;;;22.40;;
32242;SDS011;18731;42.830;24.390;2023-03-19T05:43:46;64.00;;;27.80;;
32242;SDS011;18731;42.830;24.390;2023-03-19T05:46:11;65.22;;;31.75;;
32242;SDS011;18731;42.830;24.390;2023-03-19T05:48:37;52.17;;;24.73;;
32242;SDS011;18731;42.830;24.390;2023-03-19T05:51:03;27.23;;;13.95;;
32242;SDS011;18731;42.830;24.390;2023-03-19T05:53:29;23.42;;;12.07;;
32242;SDS011;18731;42.830;24.390;2023-03-19T05:55:55;20.52;;;9.38;;
32242;SDS011;18731;42.830;24.390;2023-03-19T05:58:21;15.00;;;8.25;;
32242;SDS011;18731;42.830;24.390;2023-03-19T06:00:47;11.13;;;6.07;;
32242;SDS011;18731;42.830;24.390;2023-03-19T06:03:13;6.32;;;4.03;;
32242;SDS011;18731;42.830;24.390;2023-03-19T06:05:39;10.52;;;4.53;;
32242;SDS011;18731;42.830;24.390;2023-03-19T06:08:05;12.00;;;4.97;;
32242;SDS011;18731;42.830;24.390;2023-03-19T06:10:31;17.58;;;8.80;;
32242;SDS011;18731;42.830;24.390;2023-03-19T06:12:58;7.82;;;4.30;;
32242;SDS011;18731;42.830;24.390;2023-03-19T06:15:24;10.38;;;4.22;;
32242;SDS011;18731;42.830;24.390;2023-03-19T06:17:51;11.90;;;4.80;;
32242;SDS011;18731;42.830;24.390;2023-03-19T06:20:16;17.33;;;10.18;;
32242;SDS011;18731;42.830;24.390;2023-03-19T06:22:43;4.60;;;2.75;;
32242;SDS011;18731;42.830;24.390;2023-03-19T06:25:09;6.50;;;3.22;;
32242;SDS011;18731;42.830;24.390;2023-03-19T06:27:35;6.88;;;3.25;;
32242;SDS011;18731;42.830;24.390;2023-03-19T06:30:01;14.10;;;7.82;;
32242;SDS011;18731;42.830;24.390;2023-03-19T06:32:26;27.13;;;15.07;;
32242;SDS011;18731;42.830;24.390;2023-03-19T06:34:52;11.18;;;5.85;;
32242;SDS011;18731;42.830;24.390;2023-03-19T06:37:20;12.55;;;7.32;;
32242;SDS011;18731;42.830;24.390;2023-03-19T06:39:46;6.05;;;3.38;;
32242;SDS011;18731;42.830;24.390;2023-03-19T06:42:12;3.38;;;2.20;;
32242;SDS011;18731;42.830;24.390;2023-03-19T06:44:38;3.92;;;2.60;;
32242;SDS011;18731;42.830;24.390;2023-03-19T06:47:04;5.10;;;3.15;;
32242;SDS011;18731;42.830;24.390;2023-03-19T06:49:29;5.28;;;2.45;;
32242;SDS011;18731;42.830;24.390;2023-03-19T06:51:55;3.95;;;2.90;;
32242;SDS011;18731;42.830;24.390;2023-03-19T06:54:21;6.75;;;2.38;;
32242;SDS011;18731;42.830;24.390;2023-03-19T06:56:46;3.10;;;2.28;;
32242;SDS011;18731;42.830;24.390;2023-03-19T06:59:13;6.57;;;2.67;;
32242;SDS011;18731;42.830;24.390;2023-03-19T07:01:41;5.78;;;3.40;;
32242;SDS011;18731;42.830;24.390;2023-03-19T07:04:07;5.30;;;2.53;;
32242;SDS011;18731;42.830;24.390;2023-03-19T07:06:34;3.63;;;2.50;;
32242;SDS011;18731;42.830;24.390;2023-03-19T07:08:59;6.32;;;2.60;;
32242;SDS011;18731;42.830;24.390;2023-03-19T07:11:25;8.00;;;2.90;;
32242;SDS011;18731;42.830;24.390;2023-03-19T07:13:51;6.20;;;2.83;;
32242;SDS011;18731;42.830;24.390;2023-03-19T07:16:16;4.93;;;2.97;;
32242;SDS011;18731;42.830;24.390;2023-03-19T07:18:42;5.35;;;3.22;;
32242;SDS011;18731;42.830;24.390;2023-03-19T07:21:07;6.15;;;3.30;;
32242;SDS011;18731;42.830;24.390;2023-03-19T07:23:33;5.45;;;3.30;;
32242;SDS011;18731;42.830;24.390;2023-03-19T07:25:58;6.30;;;2.70;;
32242;SDS011;18731;42.830;24.390;2023-03-19T07:28:24;4.38;;;2.40;;
32242;SDS011;18731;42.830;24.390;2023-03-19T07:30:50;3.90;;;2.38;;
32242;SDS011;18731;42.830;24.390;2023-03-19T07:33:17;3.67;;;2.03;;
32242;SDS011;18731;42.830;24.390;2023-03-19T07:35:43;3.50;;;2.40;;
32242;SDS011;18731;42.830;24.390;2023-03-19T07:38:09;4.65;;;2.40;;
32242;SDS011;18731;42.830;24.390;2023-03-19T07:40:34;5.03;;;2.55;;
32242;SDS011;18731;42.830;24.390;2023-03-19T07:43:00;3.83;;;2.05;;
32242;SDS011;18731;42.830;24.390;2023-03-19T07:45:27;2.95;;;2.20;;
32242;SDS011;18731;42.830;24.390;2023-03-19T07:47:53;3.00;;;2.15;;
32242;SDS011;18731;42.830;24.390;2023-03-19T07:50:19;4.80;;;1.50;;
32242;SDS011;18731;42.830;24.390;2023-03-19T07:52:45;2.20;;;1.52;;
32242;SDS011;18731;42.830;24.390;2023-03-19T07:55:12;2.63;;;2.03;;
32242;SDS011;18731;42.830;24.390;2023-03-19T07:57:38;4.10;;;2.58;;
32242;SDS011;18731;42.830;24.390;2023-03-19T08:00:04;5.95;;;3.22;;
32242;SDS011;18731;42.830;24.390;2023-03-19T08:02:30;4.00;;;2.67;;
32242;SDS011;18731;42.830;24.390;2023-03-19T08:04:55;7.50;;;2.90;;
32242;SDS011;18731;42.830;24.390;2023-03-19T08:07:21;4.45;;;3.17;;
32242;SDS011;18731;42.830;24.390;2023-03-19T08:09:47;5.03;;;2.90;;
32242;SDS011;18731;42.830;24.390;2023-03-19T08:12:12;6.95;;;4.22;;
32242;SDS011;18731;42.830;24.390;2023-03-19T08:14:38;5.05;;;2.90;;
32242;SDS011;18731;42.830;24.390;2023-03-19T08:17:03;4.28;;;2.50;;
32242;SDS011;18731;42.830;24.390;2023-03-19T08:19:29;4.05;;;2.92;;
32242;SDS011;18731;42.830;24.390;2023-03-19T08:21:55;7.50;;;3.08;;
32242;SDS011;18731;42.830;24.390;2023-03-19T08:24:21;3.00;;;2.40;;
32242;SDS011;18731;42.830;24.390;2023-03-19T08:26:47;3.92;;;2.53;;
32242;SDS011;18731;42.830;24.390;2023-03-19T08:29:14;3.25;;;2.33;;
32242;SDS011;18731;42.830;24.390;2023-03-19T08:31:39;2.10;;;1.50;;
32242;SDS011;18731;42.830;24.390;2023-03-19T08:34:07;2.53;;;2.00;;
32242;SDS011;18731;42.830;24.390;2023-03-19T08:36:34;3.65;;;2.97;;
32242;SDS011;18731;42.830;24.390;2023-03-19T08:39:00;7.18;;;3.50;;
32242;SDS011;18731;42.830;24.390;2023-03-19T08:41:26;3.63;;;2.38;;
32242;SDS011;18731;42.830;24.390;2023-03-19T08:43:52;3.10;;;2.05;;
32242;SDS011;18731;42.830;24.390;2023-03-19T08:46:17;5.57;;;2.30;;
32242;SDS011;18731;42.830;24.390;2023-03-19T08:48:43;3.38;;;2.40;;
32242;SDS011;18731;42.830;24.390;2023-03-19T08:51:09;1.92;;;1.30;;
32242;SDS011;18731;42.830;24.390;2023-03-19T08:53:35;3.30;;;1.02;;
32242;SDS011;18731;42.830;24.390;2023-03-19T08:56:03;2.97;;;1.50;;
32242;SDS011;18731;42.830;24.390;2023-03-19T08:58:30;1.98;;;1.60;;
32242;SDS011;18731;42.830;24.390;2023-03-19T09:01:00;1.30;;;1.00;;
32242;SDS011;18731;42.830;24.390;2023-03-19T09:03:27;1.15;;;1.02;;
32242;SDS011;18731;42.830;24.390;2023-03-19T09:05:56;1.40;;;1.20;;
32242;SDS011;18731;42.830;24.390;2023-03-19T09:08:22;1.30;;;1.08;;
32242;SDS011;18731;42.830;24.390;2023-03-19T09:10:48;1.45;;;1.17;;
32242;SDS011;18731;42.830;24.390;2023-03-19T09:13:13;0.88;;;0.70;;
32242;SDS011;18731;42.830;24.390;2023-03-19T09:15:39;0.88;;;0.52;;
32242;SDS011;18731;42.830;24.390;2023-03-19T09:18:04;1.45;;;1.00;;
32242;SDS011;18731;42.830;24.390;2023-03-19T09:20:30;0.90;;;0.90;;
32242;SDS011;18731;42.830;24.390;2023-03-19T09:22:56;0.82;;;0.82;;
32242;SDS011;18731;42.830;24.390;2023-03-19T09:25:21;1.05;;;0.70;;
32242;SDS011;18731;42.830;24.390;2023-03-19T09:27:47;0.52;;;0.52;;
32242;SDS011;18731;42.830;24.390;2023-03-19T09:30:13;0.52;;;0.52;;
32242;SDS011;18731;42.830;24.390;2023-03-19T09:32:39;1.90;;;0.80;;
32242;SDS011;18731;42.830;24.390;2023-03-19T09:35:05;0.90;;;0.60;;
32242;SDS011;18731;42.830;24.390;2023-03-19T09:37:31;0.70;;;0.57;;
32242;SDS011;18731;42.830;24.390;2023-03-19T09:39:57;1.08;;;0.73;;
32242;SDS011;18731;42.830;24.390;2023-03-19T09:42:39;1.65;;;1.00;;
32242;SDS011;18731;42.830;24.390;2023-03-19T09:45:21;0.70;;;0.70;;
32242;SDS011;18731;42.830;24.390;2023-03-19T09:47:48;0.82;;;0.75;;
32242;SDS011;18731;42.830;24.390;2023-03-19T09:50:19;0.60;;;0.60;;
32242;SDS011;18731;42.830;24.390;2023-03-19T09:52:48;0.90;;;0.60;;
32242;SDS011;18731;42.830;24.390;2023-03-19T09:58:09;0.68;;;0.68;;
32242;SDS011;18731;42.830;24.390;2023-03-19T10:00:38;0.80;;;0.80;;
32242;SDS011;18731;42.830;24.390;2023-03-19T10:05:56;0.70;;;0.70;;
32242;SDS011;18731;42.830;24.390;2023-03-19T10:08:36;0.63;;;0.60;;
32242;SDS011;18731;42.830;24.390;2023-03-19T10:17:10;1.85;;;1.10;;
32242;SDS011;18731;42.830;24.390;2023-03-19T10:19:43;1.15;;;0.90;;
32242;SDS011;18731;42.830;24.390;2023-03-19T10:22:18;0.60;;;0.57;;
32242;SDS011;18731;42.830;24.390;2023-03-19T10:24:49;0.80;;;0.80;;
32242;SDS011;18731;42.830;24.390;2023-03-19T10:27:19;3.28;;;0.80;;
32242;SDS011;18731;42.830;24.390;2023-03-19T10:29:47;1.33;;;0.90;;
32242;SDS011;18731;42.830;24.390;2023-03-19T10:34:46;0.60;;;0.60;;
32242;SDS011;18731;42.830;24.390;2023-03-19T10:39:45;0.93;;;0.80;;
32242;SDS011;18731;42.830;24.390;2023-03-19T10:42:18;0.98;;;0.73;;
32242;SDS011;18731;42.830;24.390;2023-03-19T10:47:43;1.40;;;1.17;;
32242;SDS011;18731;42.830;24.390;2023-03-19T10:50:19;1.30;;;0.95;;
32242;SDS011;18731;42.830;24.390;2023-03-19T10:52:50;2.45;;;1.63;;
32242;SDS011;18731;42.830;24.390;2023-03-19T10:55:23;2.30;;;1.30;;
32242;SDS011;18731;42.830;24.390;2023-03-19T10:57:55;1.75;;;1.52;;
32242;SDS011;18731;42.830;24.390;2023-03-19T11:00:27;0.95;;;0.90;;
32242;SDS011;18731;42.830;24.390;2023-03-19T11:02:57;2.30;;;1.70;;
32242;SDS011;18731;42.830;24.390;2023-03-19T11:05:24;2.28;;;1.58;;
32242;SDS011;18731;42.830;24.390;2023-03-19T11:08:14;6.00;;;1.98;;
32242;SDS011;18731;42.830;24.390;2023-03-19T11:10:45;4.03;;;1.90;;
32242;SDS011;18731;42.830;24.390;2023-03-19T11:13:23;3.20;;;1.55;;
32242;SDS011;18731;42.830;24.390;2023-03-19T11:15:51;3.47;;;1.70;;
32242;SDS011;18731;42.830;24.390;2023-03-19T11:20:58;1.92;;;1.40;;
32242;SDS011;18731;42.830;24.390;2023-03-19T11:23:30;3.55;;;1.90;;
32242;SDS011;18731;42.830;24.390;2023-03-19T11:26:02;2.15;;;1.52;;
32242;SDS011;18731;42.830;24.390;2023-03-19T11:28:28;3.33;;;1.90;;
32242;SDS011;18731;42.830;24.390;2023-03-19T11:31:14;5.90;;;2.00;;
32242;SDS011;18731;42.830;24.390;2023-03-19T11:36:42;3.25;;;1.90;;
32242;SDS011;18731;42.830;24.390;2023-03-19T11:45:08;3.10;;;1.95;;
32242;SDS011;18731;42.830;24.390;2023-03-19T11:47:56;2.95;;;1.40;;
32242;SDS011;18731;42.830;24.390;2023-03-19T11:52:58;1.60;;;1.10;;
32242;SDS011;18731;42.830;24.390;2023-03-19T11:55:39;1.50;;;1.25;;
32242;SDS011;18731;42.830;24.390;2023-03-19T12:00:56;1.48;;;1.15;;
32242;SDS011;18731;42.830;24.390;2023-03-19T12:08:38;2.80;;;1.55;;
32242;SDS011;18731;42.830;24.390;2023-03-19T12:11:25;2.75;;;2.05;;
32242;SDS011;18731;42.830;24.390;2023-03-19T12:19:17;2.45;;;1.38;;
32242;SDS011;18731;42.830;24.390;2023-03-19T12:27:34;2.28;;;1.75;;
32242;SDS011;18731;42.830;24.390;2023-03-19T12:30:11;1.80;;;1.30;;
32242;SDS011;18731;42.830;24.390;2023-03-19T12:35:23;2.45;;;1.50;;
32242;SDS011;18731;42.830;24.390;2023-03-19T12:38:02;2.20;;;1.90;;
32242;SDS011;18731;42.830;24.390;2023-03-19T12:40:36;1.77;;;1.30;;
32242;SDS011;18731;42.830;24.390;2023-03-19T12:43:17;1.80;;;1.40;;
32242;SDS011;18731;42.830;24.390;2023-03-19T12:45:55;2.40;;;1.77;;
32242;SDS011;18731;42.830;24.390;2023-03-19T12:48:34;1.80;;;1.52;;
32242;SDS011;18731;42.830;24.390;2023-03-19T12:51:07;2.45;;;1.85;;
32242;SDS011;18731;42.830;24.390;2023-03-19T12:53:44;2.08;;;1.70;;
32242;SDS011;18731;42.830;24.390;2023-03-19T12:56:31;4.05;;;1.30;;
32242;SDS011;18731;42.830;24.390;2023-03-19T13:08:09;2.00;;;1.50;;
32242;SDS011;18731;42.830;24.390;2023-03-19T13:10:41;1.48;;;1.30;;
32242;SDS011;18731;42.830;24.390;2023-03-19T13:13:52;2.30;;;1.70;;
32242;SDS011;18731;42.830;24.390;2023-03-19T13:21:38;2.38;;;1.90;;
32242;SDS011;18731;42.830;24.390;2023-03-19T13:24:10;1.95;;;1.60;;
32242;SDS011;18731;42.830;24.390;2023-03-19T13:26:49;3.28;;;1.83;;
32242;SDS011;18731;42.830;24.390;2023-03-19T13:29:21;2.60;;;1.70;;
32242;SDS011;18731;42.830;24.390;2023-03-19T13:31:49;3.03;;;1.98;;
32242;SDS011;18731;42.830;24.390;2023-03-19T13:36:46;2.35;;;1.73;;
32242;SDS011;18731;42.830;24.390;2023-03-19T13:39:17;2.95;;;2.13;;
32242;SDS011;18731;42.830;24.390;2023-03-19T13:41:46;3.45;;;2.25;;
32242;SDS011;18731;42.830;24.390;2023-03-19T13:44:23;3.10;;;1.98;;
32242;SDS011;18731;42.830;24.390;2023-03-19T13:46:51;2.67;;;1.73;;
32242;SDS011;18731;42.830;24.390;2023-03-19T13:54:36;3.63;;;2.30;;
32242;SDS011;18731;42.830;24.390;2023-03-19T13:57:31;3.75;;;2.53;;
32242;SDS011;18731;42.830;24.390;2023-03-19T14:03:04;12.40;;;5.70;;
32242;SDS011;18731;42.830;24.390;2023-03-19T14:05:34;18.17;;;8.68;;
32242;SDS011;18731;42.830;24.390;2023-03-19T14:08:01;6.25;;;3.20;;
32242;SDS011;18731;42.830;24.390;2023-03-19T14:10:45;2.97;;;2.20;;
32242;SDS011;18731;42.830;24.390;2023-03-19T14:13:17;2.78;;;2.10;;
32242;SDS011;18731;42.830;24.390;2023-03-19T14:15:49;4.60;;;2.08;;
32242;SDS011;18731;42.830;24.390;2023-03-19T14:18:17;3.75;;;2.00;;
32242;SDS011;18731;42.830;24.390;2023-03-19T14:20:50;3.28;;;2.00;;
32242;SDS011;18731;42.830;24.390;2023-03-19T14:23:22;4.82;;;1.75;;
32242;SDS011;18731;42.830;24.390;2023-03-19T14:28:33;3.85;;;2.35;;
32242;SDS011;18731;42.830;24.390;2023-03-19T14:33:45;3.92;;;2.35;;
32242;SDS011;18731;42.830;24.390;2023-03-19T14:36:19;4.38;;;2.22;;
32242;SDS011;18731;42.830;24.390;2023-03-19T14:38:55;2.97;;;2.28;;
32242;SDS011;18731;42.830;24.390;2023-03-19T14:41:28;3.72;;;2.25;;
32242;SDS011;18731;42.830;24.390;2023-03-19T14:54:52;3.50;;;2.20;;
32242;SDS011;18731;42.830;24.390;2023-03-19T14:57:27;4.20;;;2.30;;
32242;SDS011;18731;42.830;24.390;2023-03-19T14:59:57;3.92;;;2.25;;
32242;SDS011;18731;42.830;24.390;2023-03-19T15:02:31;4.72;;;2.58;;
32242;SDS011;18731;42.830;24.390;2023-03-19T15:04:57;3.67;;;2.37;;
32242;SDS011;18731;42.830;24.390;2023-03-19T15:07:29;6.32;;;2.55;;
32242;SDS011;18731;42.830;24.390;2023-03-19T15:09:58;4.82;;;2.53;;
32242;SDS011;18731;42.830;24.390;2023-03-19T15:18:08;2.72;;;2.03;;
32242;SDS011;18731;42.830;24.390;2023-03-19T15:20:36;3.38;;;2.38;;
32242;SDS011;18731;42.830;24.390;2023-03-19T15:23:07;3.35;;;2.05;;
32242;SDS011;18731;42.830;24.390;2023-03-19T15:25:46;3.13;;;2.08;;
32242;SDS011;18731;42.830;24.390;2023-03-19T15:28:15;5.13;;;2.38;;
32242;SDS011;18731;42.830;24.390;2023-03-19T15:30:41;4.28;;;2.17;;
32242;SDS011;18731;42.830;24.390;2023-03-19T15:35:43;3.85;;;2.20;;
32242;SDS011;18731;42.830;24.390;2023-03-19T15:38:11;5.10;;;2.20;;
32242;SDS011;18731;42.830;24.390;2023-03-19T15:40:39;5.47;;;2.40;;
32242;SDS011;18731;42.830;24.390;2023-03-19T15:43:06;3.42;;;2.08;;
32242;SDS011;18731;42.830;24.390;2023-03-19T15:45:36;2.83;;;2.20;;
32242;SDS011;18731;42.830;24.390;2023-03-19T15:48:23;2.88;;;2.25;;
32242;SDS011;18731;42.830;24.390;2023-03-19T15:50:58;5.70;;;2.45;;
32242;SDS011;18731;42.830;24.390;2023-03-19T15:53:28;7.57;;;2.10;;
32242;SDS011;18731;42.830;24.390;2023-03-19T15:55:58;5.60;;;2.40;;
32242;SDS011;18731;42.830;24.390;2023-03-19T15:58:30;4.57;;;2.05;;
32242;SDS011;18731;42.830;24.390;2023-03-19T16:01:01;4.78;;;2.25;;
32242;SDS011;18731;42.830;24.390;2023-03-19T16:03:43;4.60;;;2.47;;
32242;SDS011;18731;42.830;24.390;2023-03-19T16:06:16;3.70;;;2.30;;
32242;SDS011;18731;42.830;24.390;2023-03-19T16:08:51;3.53;;;2.58;;
32242;SDS011;18731;42.830;24.390;2023-03-19T16:11:26;3.97;;;2.40;;
32242;SDS011;18731;42.830;24.390;2023-03-19T16:13:59;5.38;;;2.60;;
32242;SDS011;18731;42.830;24.390;2023-03-19T16:16:27;5.45;;;2.70;;
32242;SDS011;18731;42.830;24.390;2023-03-19T16:18:55;4.40;;;2.72;;
32242;SDS011;18731;42.830;24.390;2023-03-19T16:21:33;5.32;;;2.85;;
32242;SDS011;18731;42.830;24.390;2023-03-19T16:24:02;6.22;;;2.88;;
32242;SDS011;18731;42.830;24.390;2023-03-19T16:26:44;6.75;;;2.40;;
32242;SDS011;18731;42.830;24.390;2023-03-19T16:34:24;10.20;;;5.10;;
32242;SDS011;18731;42.830;24.390;2023-03-19T16:36:55;8.15;;;4.18;;
32242;SDS011;18731;42.830;24.390;2023-03-19T16:39:34;7.60;;;3.53;;
32242;SDS011;18731;42.830;24.390;2023-03-19T16:44:33;8.50;;;3.70;;
32242;SDS011;18731;42.830;24.390;2023-03-19T16:47:07;13.65;;;5.05;;
32242;SDS011;18731;42.830;24.390;2023-03-19T16:49:38;12.80;;;6.03;;
32242;SDS011;18731;42.830;24.390;2023-03-19T16:52:04;12.00;;;5.00;;
32242;SDS011;18731;42.830;24.390;2023-03-19T16:54:31;8.57;;;5.15;;
32242;SDS011;18731;42.830;24.390;2023-03-19T16:56:57;11.55;;;5.25;;
32242;SDS011;18731;42.830;24.390;2023-03-19T16:59:25;28.00;;;15.00;;
32242;SDS011;18731;42.830;24.390;2023-03-19T17:01:53;10.75;;;6.07;;
32242;SDS011;18731;42.830;24.390;2023-03-19T17:04:18;11.93;;;5.35;;
32242;SDS011;18731;42.830;24.390;2023-03-19T17:06:44;12.32;;;5.40;;
32242;SDS011;18731;42.830;24.390;2023-03-19T17:09:10;36.97;;;18.60;;
32242;SDS011;18731;42.830;24.390;2023-03-19T17:11:36;12.60;;;7.38;;
32242;SDS011;18731;42.830;24.390;2023-03-19T17:14:05;11.05;;;6.32;;
32242;SDS011;18731;42.830;24.390;2023-03-19T17:16:36;11.55;;;6.82;;
32242;SDS011;18731;42.830;24.390;2023-03-19T17:19:01;15.30;;;7.93;;
32242;SDS011;18731;42.830;24.390;2023-03-19T17:21:34;11.85;;;6.40;;
32242;SDS011;18731;42.830;24.390;2023-03-19T17:24:02;17.17;;;9.35;;
32242;SDS011;18731;42.830;24.390;2023-03-19T17:26:46;18.15;;;11.82;;
32242;SDS011;18731;42.830;24.390;2023-03-19T17:29:12;13.30;;;7.85;;
32242;SDS011;18731;42.830;24.390;2023-03-19T17:31:37;21.27;;;9.55;;
32242;SDS011;18731;42.830;24.390;2023-03-19T17:34:10;18.33;;;7.40;;
32242;SDS011;18731;42.830;24.390;2023-03-19T17:36:48;24.75;;;10.35;;
32242;SDS011;18731;42.830;24.390;2023-03-19T17:39:16;20.25;;;9.75;;
32242;SDS011;18731;42.830;24.390;2023-03-19T17:41:42;22.60;;;10.02;;
32242;SDS011;18731;42.830;24.390;2023-03-19T17:44:08;23.67;;;12.73;;
32242;SDS011;18731;42.830;24.390;2023-03-19T17:46:38;14.65;;;7.70;;
32242;SDS011;18731;42.830;24.390;2023-03-19T17:49:18;12.38;;;7.28;;
32242;SDS011;18731;42.830;24.390;2023-03-19T17:51:46;15.93;;;7.65;;
32242;SDS011;18731;42.830;24.390;2023-03-19T17:54:12;18.23;;;7.57;;
32242;SDS011;18731;42.830;24.390;2023-03-19T17:56:38;20.52;;;10.98;;
32242;SDS011;18731;42.830;24.390;2023-03-19T17:59:05;12.98;;;7.53;;
32242;SDS011;18731;42.830;24.390;2023-03-19T18:01:31;14.52;;;7.80;;
32242;SDS011;18731;42.830;24.390;2023-03-19T18:03:57;19.98;;;11.38;;
32242;SDS011;18731;42.830;24.390;2023-03-19T18:06:25;12.30;;;7.55;;
32242;SDS011;18731;42.830;24.390;2023-03-19T18:08:55;15.32;;;6.00;;
32242;SDS011;18731;42.830;24.390;2023-03-19T18:11:20;14.77;;;6.85;;
32242;SDS011;18731;42.830;24.390;2023-03-19T18:13:46;21.15;;;11.93;;
32242;SDS011;18731;42.830;24.390;2023-03-19T18:16:16;15.32;;;7.32;;
32242;SDS011;18731;42.830;24.390;2023-03-19T18:18:47;16.77;;;8.68;;
32242;SDS011;18731;42.830;24.390;2023-03-19T18:21:15;26.65;;;14.48;;
32242;SDS011;18731;42.830;24.390;2023-03-19T18:23:41;35.33;;;17.83;;
32242;SDS011;18731;42.830;24.390;2023-03-19T18:26:08;41.67;;;21.48;;
32242;SDS011;18731;42.830;24.390;2023-03-19T18:28:36;41.70;;;22.20;;
32242;SDS011;18731;42.830;24.390;2023-03-19T18:31:02;26.80;;;14.32;;
32242;SDS011;18731;42.830;24.390;2023-03-19T18:33:29;20.50;;;12.35;;
32242;SDS011;18731;42.830;24.390;2023-03-19T18:35:57;30.73;;;17.48;;
32242;SDS011;18731;42.830;24.390;2023-03-19T18:38:23;36.78;;;20.85;;
32242;SDS011;18731;42.830;24.390;2023-03-19T18:40:51;48.03;;;21.42;;
32242;SDS011;18731;42.830;24.390;2023-03-19T18:43:17;56.10;;;25.00;;
32242;SDS011;18731;42.830;24.390;2023-03-19T18:45:44;21.08;;;12.40;;
32242;SDS011;18731;42.830;24.390;2023-03-19T18:48:18;21.00;;;12.98;;
32242;SDS011;18731;42.830;24.390;2023-03-19T18:50:50;17.50;;;9.80;;
32242;SDS011;18731;42.830;24.390;2023-03-19T18:53:16;28.83;;;16.48;;
32242;SDS011;18731;42.830;24.390;2023-03-19T18:55:42;37.85;;;22.45;;
32242;SDS011;18731;42.830;24.390;2023-03-19T18:58:12;16.40;;;9.60;;
32242;SDS011;18731;42.830;24.390;2023-03-19T19:00:42;17.67;;;9.77;;
32242;SDS011;18731;42.830;24.390;2023-03-19T19:03:09;15.48;;;8.98;;
32242;SDS011;18731;42.830;24.390;2023-03-19T19:05:38;22.27;;;9.90;;
32242;SDS011;18731;42.830;24.390;2023-03-19T19:08:06;19.50;;;11.43;;
32242;SDS011;18731;42.830;24.390;2023-03-19T19:10:36;21.13;;;11.57;;
32242;SDS011;18731;42.830;24.390;2023-03-19T19:13:05;16.88;;;8.65;;
32242;SDS011;18731;42.830;24.390;2023-03-19T19:15:35;20.33;;;10.73;;
32242;SDS011;18731;42.830;24.390;2023-03-19T19:18:20;15.95;;;9.27;;
32242;SDS011;18731;42.830;24.390;2023-03-19T19:20:50;23.42;;;12.63;;
32242;SDS011;18731;42.830;24.390;2023-03-19T19:23:17;27.85;;;10.05;;
32242;SDS011;18731;42.830;24.390;2023-03-19T19:25:46;36.42;;;14.48;;
32242;SDS011;18731;42.830;24.390;2023-03-19T19:28:21;33.05;;;13.68;;
32242;SDS011;18731;42.830;24.390;2023-03-19T19:30:55;22.00;;;9.40;;
32242;SDS011;18731;42.830;24.390;2023-03-19T19:33:27;27.60;;;12.30;;
32242;SDS011;18731;42.830;24.390;2023-03-19T19:35:57;44.03;;;15.65;;
32242;SDS011;18731;42.830;24.390;2023-03-19T19:38:23;40.90;;;15.27;;
32242;SDS011;18731;42.830;24.390;2023-03-19T19:40:50;26.63;;;12.07;;
32242;SDS011;18731;42.830;24.390;2023-03-19T19:43:22;16.38;;;9.23;;
32242;SDS011;18731;42.830;24.390;2023-03-19T19:45:50;40.58;;;18.75;;
32242;SDS011;18731;42.830;24.390;2023-03-19T19:48:19;92.78;;;30.38;;
32242;SDS011;18731;42.830;24.390;2023-03-19T19:50:47;68.88;;;22.88;;
32242;SDS011;18731;42.830;24.390;2023-03-19T19:53:13;48.70;;;18.25;;
32242;SDS011;18731;42.830;24.390;2023-03-19T19:55:39;58.55;;;22.35;;
32242;SDS011;18731;42.830;24.390;2023-03-19T19:58:06;38.00;;;15.93;;
32242;SDS011;18731;42.830;24.390;2023-03-19T20:00:44;43.65;;;19.60;;
32242;SDS011;18731;42.830;24.390;2023-03-19T20:03:20;14.25;;;8.50;;
32242;SDS011;18731;42.830;24.390;2023-03-19T20:05:48;48.63;;;25.23;;
32242;SDS011;18731;42.830;24.390;2023-03-19T20:08:14;14.90;;;8.60;;
32242;SDS011;18731;42.830;24.390;2023-03-19T20:10:40;15.15;;;5.75;;
32242;SDS011;18731;42.830;24.390;2023-03-19T20:13:09;17.45;;;6.75;;
32242;SDS011;18731;42.830;24.390;2023-03-19T20:15:44;12.20;;;7.57;;
32242;SDS011;18731;42.830;24.390;2023-03-19T20:18:10;8.30;;;4.55;;
32242;SDS011;18731;42.830;24.390;2023-03-19T20:20:40;35.47;;;15.80;;
32242;SDS011;18731;42.830;24.390;2023-03-19T20:23:07;20.50;;;10.23;;
32242;SDS011;18731;42.830;24.390;2023-03-19T20:25:33;18.58;;;9.18;;
32242;SDS011;18731;42.830;24.390;2023-03-19T20:27:59;27.05;;;13.20;;
32242;SDS011;18731;42.830;24.390;2023-03-19T20:30:26;22.20;;;11.85;;